Hilham, TN (38568)

8:57 AM CST on February 12, 2016 (GMT -0600)
On the Square | | Change Station
CLOSE
Current Station
Personal Weather Station
Location: Celina, TN
Elevation: 574 ft
Nearby Weather Stations
Active Advisory: Winter Weather Advisory

Elev 574 ft 36.55 °N, 85.50 °W | Updated 11 seconds ago

Overcast
Overcast
29.5 °F
Feels Like 30 °F
N
1.0
Wind Variable Wind from NE
Gusts 1.0 mph

Today
High -- | Low -- °F
--% Chance of Precip.
Yesterday
High -- | Low -- °F
Precip. -- in
Pressure 30.14 in
Visibility 4.0 miles
Clouds Few 1300 ft
Scattered Clouds 1900 ft
Mostly Cloudy 2900 ft
Windchill 30 °F
Dew Point 28 °F
Humidity 93%
Rainfall 0.00 in
Snow Depth Not available.
6:33 AM 5:19 PM
Waxing Crescent, 21% visible
METAR KSRB 121435Z AUTO 00000KT 4SM FEW013 SCT019 BKN029 M01/M01 A3014 RMK
Pressure 30.14 in
Visibility 4.0 miles
Clouds Few 1300 ft
Scattered Clouds 1900 ft
Mostly Cloudy 2900 ft
Windchill 30 °F
Dew Point 28 °F
Humidity 93%
Rainfall 0.00 in
Snow Depth Not available.
6:33 AM 5:19 PM
Waxing Crescent, 21% visible
METAR KSRB 121435Z AUTO 00000KT 4SM FEW013 SCT019 BKN029 M01/M01 A3014 RMK

10-Day Weather Forecast

Almanac

Astronomy

Feb. 12, 2016 Rise Set
Actual Time
Civil Twilight
Nautical Twilight
Astronomical Twilight
Moon
Length of Visible Light
Length of Day
Tomorrow will be .
, % of the Moon is Illuminated

Today's Extremes

State Highs State Lows

Community

WunderPhotos

Upload Photos

1,892,318 photos uploaded!

WunderBlog® & News

Nearby

Air Quality

  Air Quality AQ Index Pollutant
Not available.

Snow Depth

Station Depth Elevation

Earthquake Activity

City Distance Mag. Time & Date
Minimum magnitude displayed is 2.5.

Coastal Water Temperatures

Place Temperature

Stations

Nearby Weather Stations

Station Location Temp. Windchill Dew Point Humidity Wind Precip. Elev Updated Type
                   

Watches & Warnings

Winter Weather Advisory
Issued: 3:24 AM CST Feb. 12, 2016 – National Weather Service

... Winter Weather Advisory remains in effect until noon CST
today...

* locations... including Lafayette... Celina... Byrdstown...
Gainesboro... Livingston... and Jamestown.

* Main impact... hazardous travel conditions across the advisory
area due to snowfall and patchy ice on roadways.

* Accumulations... around 1 inch of snow.

Precautionary/preparedness actions...

A Winter Weather Advisory for snow means that periods of snow
will cause primarily travel difficulties. Be prepared for snow
covered roads and limited visibilities... and use caution while
driving.